»·PEaware :: N237CA KSBP-KSMX

N237CA :: KSBP-KSMX

FLIGHT INFORMATION

Flight Status: Arrived
Operator: Privately registered:
United States
More flights under this callsign
Pilot: Ryan C. (15122)
Aircraft: CESSNA 172RG CUTLASS
(C72R)
More flights by this aircraft type
Origin: KSBP San Luis Co Regl
United States
Destination: KSMX Santa Maria Pub/Capt Hancock
United States
More flights between these airports :: More routes between these airports
Route: +MQO GLJ
File this flight plan on PilotEdge
Remarks: would like ILS 12
Altitude:
(Current/Filed)
5,000ft
Speed:
(Current/Filed)
130kts
Departed: 02-Aug-18 08:11 AM
Arrived: 02-Aug-18 08:33 AM
Distance/Time
Traveled:
22nm/0:22
Distance/Time
To Go:
Arrived

Flight Plot

Page will automatically refresh every two minutes.


Map Options




Map Legend


Flown Route
Filed Route
Departure Airport
Arrival Airport
Navaid (VOR, NDB)
Fix

Horizontal Profiles

Position Reports

Time Latitude Longitude Heading Altitude Ground
Speed
02-Aug-18 07:57 35.238620 -120.639180 269 193ft 0kts
02-Aug-18 07:58 35.238620 -120.639180 269 193ft 0kts
02-Aug-18 07:59 35.238620 -120.639180 269 193ft 0kts
02-Aug-18 08:00 35.238620 -120.639180 269 193ft 0kts
02-Aug-18 08:01 35.238620 -120.639180 269 193ft 0kts
02-Aug-18 08:02 35.238620 -120.639180 269 193ft 0kts
02-Aug-18 08:03 35.238620 -120.639180 269 193ft 0kts
02-Aug-18 08:04 35.238620 -120.639180 269 193ft 0kts
02-Aug-18 08:05 35.238620 -120.639180 269 193ft 0kts
02-Aug-18 08:06 35.238620 -120.639180 269 193ft 0kts
02-Aug-18 08:07 35.238386 -120.639738 214 191ft 7kts
02-Aug-18 08:08 35.237135 -120.638754 126 195ft 15kts
02-Aug-18 08:09 35.234928 -120.634863 125 210ft 15kts
02-Aug-18 08:10 35.233187 -120.632051 219 212ft 0kts
02-Aug-18 08:11 35.233151 -120.632464 208 211ft 0kts
02-Aug-18 08:12 35.235671 -120.638062 305 211ft 82kts
02-Aug-18 08:13 35.249899 -120.662416 299 1325ft 91kts
02-Aug-18 08:14 35.264558 -120.688145 303 2510ft 92kts
02-Aug-18 08:15 35.279409 -120.713840 304 3603ft 95kts
02-Aug-18 08:16 35.277256 -120.738441 213 4543ft 96kts
02-Aug-18 08:17 35.253496 -120.757513 209 5099ft 117kts
02-Aug-18 08:18 35.227096 -120.736210 135 5079ft 128kts
02-Aug-18 08:19 35.198186 -120.708677 149 5043ft 130kts
02-Aug-18 08:20 35.167738 -120.687657 148 4976ft 121kts
02-Aug-18 08:21 35.140547 -120.662755 141 4596ft 122kts
02-Aug-18 08:22 35.116214 -120.639802 149 3481ft 102kts
02-Aug-18 08:23 35.092119 -120.627398 160 2901ft 86kts
02-Aug-18 08:24 35.070632 -120.618378 160 2937ft 81kts
02-Aug-18 08:25 35.048875 -120.609831 160 2944ft 84kts
02-Aug-18 08:26 35.027972 -120.597324 146 2949ft 85kts
02-Aug-18 08:27 35.007919 -120.582318 134 2925ft 88kts
02-Aug-18 08:28 34.989390 -120.561547 130 2537ft 97kts
02-Aug-18 08:29 34.970577 -120.539147 119 1996ft 93kts
02-Aug-18 08:30 34.952142 -120.517968 133 1528ft 92kts
02-Aug-18 08:31 34.934369 -120.495874 130 1077ft 93kts
02-Aug-18 08:32 34.917557 -120.475190 138 544ft 67kts
02-Aug-18 08:33 34.905908 -120.461439 136 264ft 42kts
02-Aug-18 08:34 34.904959 -120.457872 135 264ft 12kts
02-Aug-18 08:35 34.901599 -120.453854 135 264ft 19kts
02-Aug-18 08:36 34.900073 -120.450714 84 264ft 0kts
02-Aug-18 08:37 34.900073 -120.450714 84 264ft 0kts
02-Aug-18 08:38 34.900073 -120.450714 84 264ft 0kts
02-Aug-18 08:39 34.900073 -120.450714 84 264ft 0kts
02-Aug-18 08:40 34.900073 -120.450714 84 264ft 0kts
02-Aug-18 08:41 34.900073 -120.450714 84 264ft 0kts
02-Aug-18 08:42 34.900073 -120.450714 84 264ft 0kts
02-Aug-18 08:43 34.900073 -120.450714 84 264ft 0kts
02-Aug-18 08:44 34.900073 -120.450714 84 264ft 0kts
02-Aug-18 08:45 34.900073 -120.450714 84 264ft 0kts
02-Aug-18 08:46 34.900073 -120.450714 84 264ft 0kts
02-Aug-18 08:47 34.900073 -120.450714 84 264ft 0kts
02-Aug-18 08:48 34.900073 -120.450714 84 264ft 0kts
02-Aug-18 08:49 34.900073 -120.450714 84 264ft 0kts

Navigation Log

Ident Type
1. KSBP Airport
2. MQO Navaid
3. GLJ Navaid
4. KSMX Airport